createdAt,value
2023-08-17T00:00:34.055Z,25.67
2023-08-17T00:03:35.192Z,25.68
2023-08-17T00:06:21.940Z,25.69
2023-08-17T00:09:09.246Z,25.70
2023-08-17T00:11:56.047Z,25.70
2023-08-17T00:14:42.758Z,25.69
2023-08-17T00:17:29.650Z,25.67
2023-08-17T00:20:17.425Z,25.67
2023-08-17T00:23:05.106Z,25.65
2023-08-17T00:25:52.127Z,25.62
2023-08-17T00:28:39.118Z,25.60
2023-08-17T00:31:26.376Z,25.60
2023-08-17T00:34:13.292Z,25.62
2023-08-17T00:37:00.167Z,25.62
2023-08-17T00:39:46.887Z,25.61
2023-08-17T00:42:33.955Z,25.60
2023-08-17T00:45:20.970Z,25.58
2023-08-17T00:48:10.022Z,25.57
2023-08-17T00:50:57.314Z,25.54
2023-08-17T00:53:44.559Z,25.52
2023-08-17T00:56:31.479Z,25.51
2023-08-17T00:59:18.215Z,25.51
2023-08-17T01:02:08.559Z,25.50
2023-08-17T01:04:56.248Z,25.53
2023-08-17T01:07:44.630Z,25.52
2023-08-17T01:10:53.988Z,25.52
2023-08-17T01:14:03.767Z,25.50
2023-08-17T01:17:20.021Z,25.48
2023-08-17T01:20:11.080Z,25.46
2023-08-17T01:23:06.254Z,25.43
2023-08-17T01:25:54.909Z,25.42
2023-08-17T01:28:41.855Z,25.42
2023-08-17T01:31:45.958Z,25.42
2023-08-17T01:34:38.678Z,25.41
2023-08-17T01:37:29.750Z,25.39
2023-08-17T01:40:18.073Z,25.37
2023-08-17T01:43:05.016Z,25.35
2023-08-17T01:45:51.919Z,25.33
2023-08-17T01:48:40.129Z,25.29
2023-08-17T01:51:27.810Z,25.26
2023-08-17T01:54:15.100Z,25.24
2023-08-17T01:57:02.249Z,25.24
2023-08-17T01:59:49.189Z,25.24
2023-08-17T02:02:37.089Z,25.24
2023-08-17T02:05:23.737Z,25.24
2023-08-17T02:08:10.839Z,25.22
2023-08-17T02:10:57.566Z,25.20
2023-08-17T02:13:44.317Z,25.15
2023-08-17T02:16:31.152Z,25.09
2023-08-17T02:19:18.344Z,25.03
2023-08-17T02:22:05.033Z,24.97
2023-08-17T02:24:52.075Z,24.92
2023-08-17T02:27:38.875Z,24.89
2023-08-17T02:30:25.692Z,24.87
2023-08-17T02:33:13.024Z,24.86
2023-08-17T02:36:00.177Z,24.87
2023-08-17T02:38:46.667Z,24.87
2023-08-17T02:41:33.587Z,24.87
2023-08-17T02:44:20.454Z,24.87
2023-08-17T02:47:09.731Z,24.85
2023-08-17T02:49:56.692Z,24.84
2023-08-17T02:52:43.955Z,24.85
2023-08-17T02:55:30.843Z,24.84
2023-08-17T02:58:17.775Z,24.83
2023-08-17T03:01:05.534Z,24.82
2023-08-17T03:03:52.370Z,24.79
2023-08-17T03:06:39.512Z,24.77
2023-08-17T03:09:26.621Z,24.76
2023-08-17T03:12:13.646Z,24.75
2023-08-17T03:15:01.037Z,24.76
2023-08-17T03:17:49.406Z,24.77
2023-08-17T03:20:36.470Z,24.76
2023-08-17T03:23:23.511Z,24.77
2023-08-17T03:26:11.649Z,24.77
2023-08-17T03:28:58.640Z,24.76
2023-08-17T03:31:45.555Z,24.75
2023-08-17T03:34:32.813Z,24.75
2023-08-17T03:37:21.798Z,24.75
2023-08-17T03:40:09.675Z,24.76
2023-08-17T03:42:56.676Z,24.80
2023-08-17T03:45:44.262Z,24.83
2023-08-17T03:48:31.491Z,24.88
2023-08-17T03:51:18.562Z,24.92
2023-08-17T03:54:05.824Z,24.96
2023-08-17T03:56:52.396Z,24.98
2023-08-17T03:59:39.740Z,24.99
2023-08-17T04:02:26.798Z,25.00
2023-08-17T04:05:14.331Z,25.01
2023-08-17T04:08:05.028Z,25.04
2023-08-17T04:10:51.710Z,25.08
2023-08-17T04:13:38.826Z,25.14
2023-08-17T04:16:25.947Z,25.21
2023-08-17T04:19:12.851Z,25.28
2023-08-17T04:21:59.796Z,25.33
2023-08-17T04:24:46.588Z,25.41
2023-08-17T04:27:33.885Z,25.46
2023-08-17T04:30:21.078Z,25.51
2023-08-17T04:33:16.030Z,25.55
2023-08-17T04:36:06.440Z,25.59
2023-08-17T04:38:53.338Z,25.63
2023-08-17T04:41:40.491Z,25.66
2023-08-17T04:44:28.171Z,25.70
2023-08-17T04:47:16.167Z,25.77
2023-08-17T04:50:04.170Z,25.81
2023-08-17T04:52:51.218Z,25.85
2023-08-17T04:55:38.955Z,25.88
2023-08-17T04:58:26.001Z,25.92
2023-08-17T05:01:12.797Z,25.98
2023-08-17T05:04:00.258Z,26.02
2023-08-17T05:06:47.793Z,26.07
2023-08-17T05:09:35.028Z,26.12
2023-08-17T05:12:22.325Z,26.16
2023-08-17T05:15:11.535Z,26.20
2023-08-17T05:18:00.100Z,26.24
2023-08-17T05:20:47.524Z,26.28
2023-08-17T05:23:34.746Z,26.34
2023-08-17T05:26:21.853Z,26.40
2023-08-17T05:29:12.886Z,26.47
2023-08-17T05:32:01.425Z,26.51
2023-08-17T05:34:49.071Z,26.55
2023-08-17T05:37:36.181Z,26.61
2023-08-17T05:40:22.900Z,26.67
2023-08-17T05:43:09.727Z,26.75
2023-08-17T05:46:02.210Z,26.85
2023-08-17T05:48:49.784Z,26.94
2023-08-17T05:51:36.783Z,27.02
2023-08-17T05:54:23.626Z,27.07
2023-08-17T05:57:11.994Z,27.13
2023-08-17T06:08:21.746Z,27.39
2023-08-17T06:11:29.380Z,27.47
2023-08-17T06:14:16.255Z,27.55
2023-08-17T06:17:03.376Z,27.63
2023-08-17T06:19:53.833Z,27.69
2023-08-17T06:22:40.474Z,27.74
2023-08-17T06:25:27.155Z,27.78
2023-08-17T06:28:14.299Z,27.81
2023-08-17T06:31:01.045Z,27.85
2023-08-17T06:33:47.882Z,27.92
2023-08-17T06:36:35.482Z,27.96
2023-08-17T06:39:22.630Z,28.00
2023-08-17T06:42:09.294Z,28.02
2023-08-17T06:44:56.540Z,28.06
2023-08-17T06:47:47.169Z,28.12
2023-08-17T06:50:34.092Z,28.20
2023-08-17T06:53:21.129Z,28.27
2023-08-17T06:56:08.436Z,28.34
2023-08-17T06:58:55.584Z,28.38
2023-08-17T07:01:49.765Z,28.42
2023-08-17T07:04:36.628Z,28.48
2023-08-17T07:07:23.747Z,28.57
2023-08-17T07:10:15.265Z,28.64
2023-08-17T07:13:05.217Z,28.70
2023-08-17T07:15:52.197Z,28.77
2023-08-17T07:18:39.218Z,28.85
2023-08-17T07:21:26.982Z,28.96
2023-08-17T07:24:16.400Z,29.07
2023-08-17T07:27:03.367Z,29.21
2023-08-17T07:29:50.153Z,29.32
2023-08-17T07:32:37.196Z,29.45
2023-08-17T07:35:24.196Z,29.58
2023-08-17T07:38:12.215Z,29.67
2023-08-17T07:41:00.115Z,29.75
2023-08-17T07:43:47.303Z,29.85
2023-08-17T07:46:33.956Z,29.96
2023-08-17T07:49:31.414Z,30.03
2023-08-17T07:52:20.246Z,30.10
2023-08-17T07:55:07.521Z,30.19
2023-08-17T07:57:54.651Z,30.30
2023-08-17T08:00:41.938Z,30.39
2023-08-17T08:03:52.339Z,30.47
2023-08-17T08:06:42.428Z,30.53
2023-08-17T08:09:28.927Z,30.58
2023-08-17T08:12:16.052Z,30.60
2023-08-17T08:15:03.307Z,30.65
2023-08-17T08:17:54.113Z,30.66
2023-08-17T08:20:41.040Z,30.69
2023-08-17T08:23:28.727Z,30.70
2023-08-17T08:26:15.856Z,30.73
2023-08-17T08:29:02.931Z,30.80
2023-08-17T08:35:44.989Z,30.94
2023-08-17T08:38:33.173Z,31.06
2023-08-17T08:41:21.074Z,31.17
2023-08-17T08:44:08.333Z,31.30
2023-08-17T08:46:58.520Z,31.39
2023-08-17T08:50:02.791Z,31.47
2023-08-17T08:53:05.776Z,31.53
2023-08-17T08:56:00.370Z,31.59
2023-08-17T08:58:48.555Z,31.67
2023-08-17T09:01:42.426Z,31.73
2023-08-17T09:04:46.280Z,31.81
2023-08-17T09:07:34.582Z,31.91
2023-08-17T09:10:21.610Z,31.97
2023-08-17T09:13:09.144Z,32.06
2023-08-17T09:15:55.822Z,32.15
2023-08-17T09:18:43.170Z,32.20
2023-08-17T09:21:33.307Z,32.19
2023-08-17T09:24:20.215Z,32.19
2023-08-17T09:27:14.361Z,32.21
2023-08-17T09:30:07.447Z,32.29
2023-08-17T09:32:54.511Z,32.35
2023-08-17T09:35:43.447Z,32.43
2023-08-17T09:38:30.889Z,32.50
2023-08-17T09:41:19.186Z,32.59
2023-08-17T09:44:07.725Z,32.65
2023-08-17T09:46:59.431Z,32.72
2023-08-17T09:49:56.247Z,32.82
2023-08-17T09:52:43.245Z,32.93
2023-08-17T09:55:35.457Z,33.01
2023-08-17T09:58:22.218Z,33.11
2023-08-17T10:01:11.478Z,33.23
2023-08-17T10:04:00.845Z,33.32
2023-08-17T10:06:53.487Z,33.40
2023-08-17T10:09:50.173Z,33.47
2023-08-17T10:12:44.244Z,33.57
2023-08-17T10:15:33.747Z,33.69
2023-08-17T10:19:07.771Z,33.81
2023-08-17T10:22:07.493Z,33.92
2023-08-17T10:25:04.949Z,33.94
2023-08-17T10:31:52.632Z,34.03
2023-08-17T10:34:40.874Z,34.05
2023-08-17T10:37:44.528Z,34.01
2023-08-17T10:40:40.619Z,34.02
2023-08-17T10:43:35.421Z,34.02
2023-08-17T10:46:22.842Z,34.09
2023-08-17T10:49:27.242Z,34.18
2023-08-17T10:52:27.689Z,34.21
2023-08-17T10:55:15.273Z,34.20
2023-08-17T10:58:02.225Z,34.23
2023-08-17T11:00:56.011Z,34.27
2023-08-17T11:03:44.635Z,34.34
2023-08-17T11:06:36.772Z,34.41
2023-08-17T11:09:23.583Z,34.47
2023-08-17T11:12:27.181Z,34.49
2023-08-17T11:15:14.168Z,34.48
2023-08-17T11:18:01.217Z,34.51
2023-08-17T11:20:50.052Z,34.58
2023-08-17T11:23:38.619Z,34.64
2023-08-17T11:26:26.148Z,34.70
2023-08-17T11:29:37.125Z,34.74
2023-08-17T11:36:49.102Z,34.74
2023-08-17T11:39:36.483Z,34.77
2023-08-17T11:46:38.522Z,34.86
2023-08-17T11:54:00.951Z,35.09
2023-08-17T11:56:47.639Z,35.15
2023-08-17T11:59:38.105Z,35.18
2023-08-17T12:02:26.089Z,35.24
2023-08-17T12:05:21.617Z,35.37
2023-08-17T12:08:09.157Z,35.49
2023-08-17T12:11:39.436Z,35.58
2023-08-17T12:14:48.990Z,35.62
2023-08-17T12:17:37.445Z,35.71
2023-08-17T12:20:24.742Z,35.82
2023-08-17T12:23:14.373Z,35.91
2023-08-17T12:26:01.490Z,36.06
2023-08-17T12:28:48.786Z,36.26
2023-08-17T12:31:36.277Z,36.45
2023-08-17T12:34:23.600Z,36.62
2023-08-17T12:37:12.448Z,36.85
2023-08-17T12:39:59.650Z,37.13
2023-08-17T12:42:46.396Z,37.40
2023-08-17T12:45:33.390Z,37.68
2023-08-17T12:48:20.349Z,37.84
2023-08-17T12:54:31.203Z,38.26
2023-08-17T12:57:18.695Z,38.54
2023-08-17T13:00:06.524Z,38.87
2023-08-17T13:02:53.540Z,39.06
2023-08-17T13:05:41.369Z,39.16
2023-08-17T13:08:29.150Z,39.22
2023-08-17T13:11:16.062Z,39.32
2023-08-17T13:14:02.808Z,39.45
2023-08-17T13:16:53.343Z,39.61
2023-08-17T13:19:40.710Z,39.82
2023-08-17T13:22:27.849Z,39.93
2023-08-17T13:25:18.701Z,40.01
2023-08-17T13:28:06.102Z,40.09
2023-08-17T13:30:53.106Z,40.21
2023-08-17T13:33:39.928Z,40.39
2023-08-17T13:36:27.027Z,40.66
2023-08-17T13:39:28.950Z,40.91
2023-08-17T13:42:15.891Z,41.11
2023-08-17T13:45:02.936Z,41.34
2023-08-17T13:47:50.028Z,41.48
2023-08-17T13:50:40.935Z,41.61
2023-08-17T13:53:27.618Z,41.59
2023-08-17T13:56:14.609Z,41.55
2023-08-17T13:59:07.560Z,41.60
2023-08-17T14:01:57.057Z,41.74
2023-08-17T14:04:44.041Z,41.92
2023-08-17T14:07:30.937Z,42.05
2023-08-17T14:10:29.233Z,42.20
2023-08-17T14:13:24.184Z,42.38
2023-08-17T14:16:11.492Z,42.51
2023-08-17T14:18:58.605Z,42.65
2023-08-17T14:21:45.720Z,42.69
2023-08-17T14:24:32.571Z,42.77
2023-08-17T14:27:19.466Z,42.86
2023-08-17T14:30:07.561Z,42.87
2023-08-17T14:33:00.821Z,42.83
2023-08-17T14:35:48.596Z,42.26
2023-08-17T14:38:37.086Z,41.63
2023-08-17T14:41:23.744Z,41.44
2023-08-17T14:44:10.904Z,41.40
2023-08-17T14:50:29.042Z,41.42
2023-08-17T14:53:16.546Z,41.05
2023-08-17T14:56:03.493Z,40.49
2023-08-17T14:58:50.631Z,39.99
2023-08-17T15:01:37.988Z,39.53
2023-08-17T15:04:27.840Z,39.48
2023-08-17T15:07:14.817Z,39.57
2023-08-17T15:10:01.468Z,39.59
2023-08-17T15:12:48.312Z,39.61
2023-08-17T15:15:35.727Z,39.12
2023-08-17T15:18:23.643Z,38.57
2023-08-17T15:21:11.858Z,38.53
2023-08-17T15:24:00.627Z,38.74
2023-08-17T15:26:47.851Z,38.79
2023-08-17T15:29:34.750Z,38.91
2023-08-17T15:32:21.594Z,38.78
2023-08-17T15:35:10.934Z,38.54
2023-08-17T15:38:01.581Z,38.11
2023-08-17T15:41:12.922Z,37.48
2023-08-17T15:44:00.764Z,37.11
2023-08-17T15:46:47.901Z,36.84
2023-08-17T15:49:34.631Z,36.49
2023-08-17T15:52:21.532Z,36.11
2023-08-17T15:55:08.548Z,35.86
2023-08-17T15:57:55.527Z,35.61
2023-08-17T16:00:42.545Z,35.37
2023-08-17T16:03:29.400Z,35.17
2023-08-17T16:06:16.258Z,35.15
2023-08-17T16:09:03.402Z,35.13
2023-08-17T16:11:50.137Z,35.09
2023-08-17T16:14:36.842Z,35.17
2023-08-17T16:17:23.815Z,35.21
2023-08-17T16:20:11.878Z,35.06
2023-08-17T16:22:58.929Z,34.67
2023-08-17T16:25:45.840Z,34.29
2023-08-17T16:28:32.772Z,33.99
2023-08-17T16:31:19.771Z,33.66
2023-08-17T16:34:06.733Z,33.39
2023-08-17T16:36:53.699Z,33.14
2023-08-17T16:39:40.690Z,32.91
2023-08-17T16:42:27.606Z,32.70
2023-08-17T16:45:16.317Z,32.50
2023-08-17T16:48:04.566Z,32.29
2023-08-17T16:50:51.478Z,32.10
2023-08-17T16:53:43.883Z,31.91
2023-08-17T16:56:31.185Z,31.73
2023-08-17T16:59:18.254Z,31.57
2023-08-17T17:02:05.322Z,31.40
2023-08-17T17:04:52.095Z,31.22
2023-08-17T17:07:38.810Z,31.04
2023-08-17T17:10:26.096Z,30.88
2023-08-17T17:13:12.804Z,30.72
2023-08-17T17:15:59.567Z,30.58
2023-08-17T17:18:48.263Z,30.44
2023-08-17T17:21:35.120Z,30.32
2023-08-17T17:24:21.780Z,30.20
2023-08-17T17:27:10.832Z,30.07
2023-08-17T17:29:58.270Z,29.94
2023-08-17T17:32:45.429Z,29.82
2023-08-17T17:35:32.565Z,29.67
2023-08-17T17:38:20.860Z,29.53
2023-08-17T17:41:08.789Z,29.38
2023-08-17T17:43:55.722Z,29.25
2023-08-17T17:46:42.615Z,29.12
2023-08-17T17:49:32.346Z,28.99
2023-08-17T17:52:21.772Z,28.88
2023-08-17T17:55:19.365Z,28.77
2023-08-17T17:58:07.496Z,28.68
2023-08-17T18:00:54.880Z,28.59
2023-08-17T18:03:43.512Z,28.50
2023-08-17T18:06:30.811Z,28.42
2023-08-17T18:09:17.961Z,28.36
2023-08-17T18:12:05.098Z,28.30
2023-08-17T18:14:51.733Z,28.21
2023-08-17T18:17:38.733Z,28.14
2023-08-17T18:20:25.726Z,28.07
2023-08-17T18:23:12.990Z,28.02
2023-08-17T18:25:59.756Z,27.96
2023-08-17T18:28:46.679Z,27.90
2023-08-17T18:31:34.085Z,27.84
2023-08-17T18:34:21.307Z,27.79
2023-08-17T18:37:08.556Z,27.74
2023-08-17T18:39:57.007Z,27.68
2023-08-17T18:42:43.851Z,27.64
2023-08-17T18:45:30.531Z,27.60
2023-08-17T18:48:19.209Z,27.57
2023-08-17T18:51:06.153Z,27.54
2023-08-17T18:53:53.095Z,27.52
2023-08-17T18:56:40.308Z,27.52
2023-08-17T18:59:27.930Z,27.52
2023-08-17T19:02:14.940Z,27.52
2023-08-17T19:05:03.683Z,27.51
2023-08-17T19:07:50.991Z,27.50
2023-08-17T19:10:37.876Z,27.49
2023-08-17T19:13:24.944Z,27.49
2023-08-17T19:16:12.207Z,27.48
2023-08-17T19:18:58.999Z,27.45
2023-08-17T19:21:46.624Z,27.43
2023-08-17T19:24:33.984Z,27.39
2023-08-17T19:27:21.137Z,27.35
2023-08-17T19:30:11.458Z,27.31
2023-08-17T19:33:00.502Z,27.28
2023-08-17T19:35:48.678Z,27.25
2023-08-17T19:38:35.948Z,27.22
2023-08-17T19:41:23.041Z,27.19
2023-08-17T19:44:09.705Z,27.16
2023-08-17T19:46:56.492Z,27.14
2023-08-17T19:49:43.342Z,27.13
2023-08-17T19:52:30.648Z,27.11
2023-08-17T19:55:17.685Z,27.08
2023-08-17T19:58:05.752Z,27.04
2023-08-17T20:00:54.400Z,26.99
2023-08-17T20:03:41.693Z,26.93
2023-08-17T20:06:29.355Z,26.88
2023-08-17T20:09:16.241Z,26.86
2023-08-17T20:12:03.116Z,26.82
2023-08-17T20:14:50.028Z,26.79
2023-08-17T20:17:36.929Z,26.77
2023-08-17T20:20:23.849Z,26.75
2023-08-17T20:23:10.766Z,26.74
2023-08-17T20:25:57.900Z,26.74
2023-08-17T20:28:44.571Z,26.73
2023-08-17T20:31:31.587Z,26.72
2023-08-17T20:34:18.524Z,26.70
2023-08-17T20:37:05.338Z,26.69
2023-08-17T20:39:53.445Z,26.68
2023-08-17T20:42:41.887Z,26.68
2023-08-17T20:45:28.711Z,26.69
2023-08-17T20:48:15.597Z,26.68
2023-08-17T20:51:03.126Z,26.67
2023-08-17T20:53:49.957Z,26.66
2023-08-17T20:56:36.618Z,26.65
2023-08-17T20:59:23.713Z,26.64
2023-08-17T21:02:10.721Z,26.64
2023-08-17T21:04:57.604Z,26.64
2023-08-17T21:07:44.610Z,26.65
2023-08-17T21:10:32.380Z,26.65
2023-08-17T21:13:19.060Z,26.63
2023-08-17T21:16:07.809Z,26.61
2023-08-17T21:19:00.378Z,26.59
2023-08-17T21:21:47.939Z,26.53
2023-08-17T21:24:34.971Z,26.51
2023-08-17T21:27:21.789Z,26.54
2023-08-17T21:30:09.021Z,26.53
2023-08-17T21:32:56.810Z,26.51
2023-08-17T21:35:43.730Z,26.49
2023-08-17T21:38:30.448Z,26.47
2023-08-17T21:41:17.566Z,26.44
2023-08-17T21:44:04.473Z,26.42
2023-08-17T21:46:51.358Z,26.40
2023-08-17T21:49:38.284Z,26.37
2023-08-17T21:52:25.031Z,26.35
2023-08-17T21:55:12.337Z,26.34
2023-08-17T21:57:59.414Z,26.34
2023-08-17T22:00:48.038Z,26.34
2023-08-17T22:03:35.078Z,26.34
2023-08-17T22:06:22.610Z,26.35
2023-08-17T22:09:09.817Z,26.35
2023-08-17T22:11:57.311Z,26.36
2023-08-17T22:14:44.255Z,26.37
2023-08-17T22:17:31.726Z,26.38
2023-08-17T22:20:19.436Z,26.38
2023-08-17T22:23:07.196Z,26.38
2023-08-17T22:25:53.991Z,26.37
2023-08-17T22:28:40.946Z,26.35
2023-08-17T22:31:27.670Z,26.33
2023-08-17T22:34:14.535Z,26.30
2023-08-17T22:37:01.521Z,26.27
2023-08-17T22:39:49.210Z,26.24
2023-08-17T22:42:36.732Z,26.22
2023-08-17T22:45:23.873Z,26.18
2023-08-17T22:48:10.431Z,26.15
2023-08-17T22:50:57.391Z,26.12
2023-08-17T22:53:44.565Z,26.10
2023-08-17T22:56:31.347Z,26.08
2023-08-17T22:59:18.267Z,26.06
2023-08-17T23:02:07.944Z,26.04
2023-08-17T23:04:55.373Z,26.03
2023-08-17T23:07:42.311Z,26.03
2023-08-17T23:10:29.461Z,26.02
2023-08-17T23:13:16.506Z,26.02
2023-08-17T23:16:04.484Z,26.01
2023-08-17T23:18:51.162Z,25.99
2023-08-17T23:21:38.156Z,25.97
2023-08-17T23:24:25.148Z,25.95
2023-08-17T23:27:11.940Z,25.92
2023-08-17T23:29:58.903Z,25.89
2023-08-17T23:32:45.741Z,25.86
2023-08-17T23:35:34.395Z,25.82
2023-08-17T23:38:21.846Z,25.80
2023-08-17T23:41:08.566Z,25.77
2023-08-17T23:43:55.771Z,25.75
2023-08-17T23:46:42.445Z,25.73
2023-08-17T23:49:29.982Z,25.70
2023-08-17T23:52:16.850Z,25.68
2023-08-17T23:55:04.947Z,25.66
2023-08-17T23:57:51.621Z,25.64
